Observation data for Knox City on 08/20/2019      Previous  Date  Next       Current Mesonet Observations  Soil Data  Daily Summary Page  Observations in Plain Language
KKN1 200500Z 15012KT 31/18 A2998 RMK A01 T03140178  RH  046%=      5-min Rain = 0
KKN1 200505Z 15012KT 31/18 A2998 RMK A01 T03140178  RH  047%=      5-min Rain = 0
KKN1 200510Z 15013KT 31/18 A2998 RMK A01 T03140178  RH  047%=      5-min Rain = 0
KKN1 200515Z 15014KT 32/18 A2998 RMK A01 T03150179  RH  047%=      5-min Rain = 0
KKN1 200520Z 15014G19KT 32/18 A2998 RMK A01 T03150179  RH  047%=      5-min Rain = 0
KKN1 200525Z 15014KT 31/18 A2998 RMK A01 T03140180  RH  047%=      5-min Rain = 0
KKN1 200530Z 15014KT 31/18 A2998 RMK A01 T03130179  RH  047%=      5-min Rain = 0
KKN1 200535Z 15014KT 31/18 A2998 RMK A01 T03120179  RH  047%=      5-min Rain = 0
KKN1 200540Z 15013KT 31/18 A2998 RMK A01 T03110178  RH  048%=      5-min Rain = 0
KKN1 200545Z 15014KT 31/18 A2998 RMK A01 T03110178  RH  047%=      5-min Rain = 0
KKN1 200550Z 15014KT 31/18 A2998 RMK A01 T03110178  RH  047%=      5-min Rain = 0
KKN1 200555Z 15014KT 31/18 A2998 RMK A01 T03110177  RH  047%=      5-min Rain = 0
KKN1 200600Z 15013KT 31/18 A2998 RMK A01 T03090177  RH  048%=      5-min Rain = 0
KKN1 200605Z 15012KT 31/18 A2998 RMK A01 T03080177  RH  048%=      5-min Rain = 0
KKN1 200610Z 15012KT 31/18 A2998 RMK A01 T03070178  RH  048%=      5-min Rain = 0
KKN1 200615Z 16013KT 31/18 A2998 RMK A01 T03060178  RH  049%=      5-min Rain = 0
KKN1 200620Z 16013G18KT 31/18 A2998 RMK A01 T03060178  RH  049%=      5-min Rain = 0
KKN1 200625Z 16012G17KT 31/18 A2998 RMK A01 T03050178  RH  049%=      5-min Rain = 0
KKN1 200630Z 16012KT 31/18 A2998 RMK A01 T03050178  RH  049%=      5-min Rain = 0
KKN1 200635Z 16012KT 30/18 A2998 RMK A01 T03040178  RH  049%=      5-min Rain = 0
KKN1 200640Z 16012KT 30/18 A2998 RMK A01 T03040178  RH  049%=      5-min Rain = 0
KKN1 200645Z 16011KT 30/18 A2998 RMK A01 T03030177  RH  049%=      5-min Rain = 0
KKN1 200650Z 16012KT 30/18 A2998 RMK A01 T03030177  RH  049%=      5-min Rain = 0
KKN1 200655Z 16012KT 30/18 A2998 RMK A01 T03030176  RH  049%=      5-min Rain = 0
KKN1 200700Z 16012KT 30/18 A2998 RMK A01 T03030176  RH  049%=      5-min Rain = 0
KKN1 200705Z 16013KT 30/18 A2998 RMK A01 T03030176  RH  049%=      5-min Rain = 0
KKN1 200710Z 16012KT 30/18 A2998 RMK A01 T03030176  RH  049%=      5-min Rain = 0
KKN1 200715Z 16011KT 30/18 A2998 RMK A01 T03010176  RH  050%=      5-min Rain = 0
KKN1 200720Z 16012KT 30/18 A2998 RMK A01 T03010176  RH  050%=      5-min Rain = 0
KKN1 200725Z 16012KT 30/18 A2998 RMK A01 T03010176  RH  050%=      5-min Rain = 0
KKN1 200730Z 16011KT 30/18 A2998 RMK A01 T03000176  RH  050%=      5-min Rain = 0
KKN1 200735Z 16011KT 30/18 A2998 RMK A01 T02990176  RH  050%=      5-min Rain = 0
KKN1 200740Z 16012KT 30/18 A2998 RMK A01 T02980176  RH  051%=      5-min Rain = 0
KKN1 200745Z 15011KT 30/18 A2998 RMK A01 T02960176  RH  051%=      5-min Rain = 0
KKN1 200750Z 15010KT 30/18 A2998 RMK A01 T02960177  RH  051%=      5-min Rain = 0
KKN1 200755Z 15010KT 29/18 A2999 RMK A01 T02940177  RH  052%=      5-min Rain = 0
KKN1 200800Z 15010KT 29/18 A2999 RMK A01 T02920177  RH  052%=      5-min Rain = 0
KKN1 200805Z 15009KT 29/18 A2998 RMK A01 T02900177  RH  053%=      5-min Rain = 0
KKN1 200810Z 14009KT 29/18 A2999 RMK A01 T02890177  RH  054%=      5-min Rain = 0
KKN1 200815Z 15009KT 29/18 A2999 RMK A01 T02870178  RH  055%=      5-min Rain = 0
KKN1 200820Z 15010KT 29/18 A2998 RMK A01 T02850178  RH  055%=      5-min Rain = 0
KKN1 200825Z 15009KT 28/18 A2998 RMK A01 T02840178  RH  055%=      5-min Rain = 0
KKN1 200830Z 15009KT 28/18 A2998 RMK A01 T02840177  RH  055%=      5-min Rain = 0
KKN1 200835Z 16009KT 28/18 A2999 RMK A01 T02820177  RH  056%=      5-min Rain = 0
KKN1 200840Z 16009KT 28/18 A2998 RMK A01 T02800177  RH  056%=      5-min Rain = 0
KKN1 200845Z 16008KT 28/18 A2998 RMK A01 T02790177  RH  057%=      5-min Rain = 0
KKN1 200850Z 16008KT 28/18 A2998 RMK A01 T02790177  RH  056%=      5-min Rain = 0
KKN1 200855Z 17009KT 28/18 A2998 RMK A01 T02800177  RH  056%=      5-min Rain = 0
KKN1 200900Z 17008KT 28/18 A2998 RMK A01 T02800177  RH  056%=      5-min Rain = 0
KKN1 200905Z 16008KT 28/18 A2999 RMK A01 T02800177  RH  056%=      5-min Rain = 0
KKN1 200910Z 16008KT 28/18 A2999 RMK A01 T02790177  RH  057%=      5-min Rain = 0
KKN1 200915Z 16008KT 28/18 A2999 RMK A01 T02770177  RH  057%=      5-min Rain = 0
KKN1 200920Z 16008KT 28/18 A2999 RMK A01 T02760177  RH  058%=      5-min Rain = 0
KKN1 200925Z 16007KT 27/18 A2999 RMK A01 T02740177  RH  058%=      5-min Rain = 0
KKN1 200930Z 17007KT 27/18 A2999 RMK A01 T02730177  RH  059%=      5-min Rain = 0
KKN1 200935Z 17007KT 27/18 A2999 RMK A01 T02720177  RH  059%=      5-min Rain = 0
KKN1 200940Z 16007KT 27/18 A2999 RMK A01 T02700176  RH  059%=      5-min Rain = 0
KKN1 200945Z 16007KT 27/18 A2999 RMK A01 T02690176  RH  060%=      5-min Rain = 0
KKN1 200950Z 15007KT 27/18 A2999 RMK A01 T02690177  RH  060%=      5-min Rain = 0
KKN1 200955Z 16007KT 27/18 A2999 RMK A01 T02670178  RH  061%=      5-min Rain = 0
KKN1 201000Z 17007KT 27/18 A2999 RMK A01 T02660178  RH  062%=      5-min Rain = 0
KKN1 201005Z 17007KT 26/18 A2999 RMK A01 T02640178  RH  062%=      5-min Rain = 0
KKN1 201010Z 18007KT 26/18 A2999 RMK A01 T02640178  RH  063%=      5-min Rain = 0
KKN1 201015Z 18006KT 26/18 A2999 RMK A01 T02630178  RH  062%=      5-min Rain = 0
KKN1 201020Z 17008KT 26/18 A2999 RMK A01 T02630177  RH  063%=      5-min Rain = 0
KKN1 201025Z 17007KT 26/18 A2999 RMK A01 T02600177  RH  063%=      5-min Rain = 0
KKN1 201030Z 16006KT 26/18 A30 RMK A01 T02590176  RH  063%=      5-min Rain = 0
KKN1 201035Z 16006KT 26/18 A30 RMK A01 T02580175  RH  063%=      5-min Rain = 0
KKN1 201040Z 17006KT 26/18 A2999 RMK A01 T02570175  RH  064%=      5-min Rain = 0
KKN1 201045Z 18006KT 26/18 A2999 RMK A01 T02570175  RH  064%=      5-min Rain = 0
KKN1 201050Z 21003KT 26/18 A30 RMK A01 T02550177  RH  065%=      5-min Rain = 0
KKN1 201055Z 23004KT 25/18 A30 RMK A01 T02520177  RH  066%=      5-min Rain = 0
KKN1 201100Z 22004KT 25/18 A30 RMK A01 T02540176  RH  065%=      5-min Rain = 0
KKN1 201105Z 21003KT 26/18 A30 RMK A01 T02560176  RH  065%=      5-min Rain = 0
KKN1 201110Z 21003KT 26/18 A3001 RMK A01 T02550176  RH  065%=      5-min Rain = 0
KKN1 201115Z 20003KT 25/18 A3001 RMK A01 T02530176  RH  065%=      5-min Rain = 0
KKN1 201120Z 19003KT 25/18 A3001 RMK A01 T02540175  RH  065%=      5-min Rain = 0
KKN1 201125Z 20003KT 25/18 A30 RMK A01 T02530175  RH  065%=      5-min Rain = 0
KKN1 201130Z 20003KT 25/18 A30 RMK A01 T02530175  RH  066%=      5-min Rain = 0
KKN1 201135Z 21004KT 25/18 A3001 RMK A01 T02490176  RH  067%=      5-min Rain = 0
KKN1 201140Z 21003KT 25/18 A3001 RMK A01 T02480176  RH  068%=      5-min Rain = 0
KKN1 201145Z 22004KT 25/18 A3001 RMK A01 T02480175  RH  067%=      5-min Rain = 0
KKN1 201150Z 22004KT 25/17 A3001 RMK A01 T02460174  RH  068%=      5-min Rain = 0
KKN1 201155Z 23004KT 25/18 A3001 RMK A01 T02450176  RH  069%=      5-min Rain = 0
KKN1 201200Z 23003KT 24/18 A3002 RMK A01 T02440175  RH  069%=      5-min Rain = 0
KKN1 201205Z 23003KT 24/18 A3002 RMK A01 T02430175  RH  069%=      5-min Rain = 0
KKN1 201210Z 23004KT 25/18 A3002 RMK A01 T02450177  RH  069%=      5-min Rain = 0
KKN1 201215Z 23004KT 25/18 A3002 RMK A01 T02490176  RH  067%=      5-min Rain = 0
KKN1 201220Z 22005KT 25/18 A3002 RMK A01 T02480176  RH  068%=      5-min Rain = 0
KKN1 201225Z 22005KT 25/18 A3002 RMK A01 T02460175  RH  068%=      5-min Rain = 0
KKN1 201230Z 22005KT 25/18 A3002 RMK A01 T02470177  RH  069%=      5-min Rain = 0
KKN1 201235Z 22005KT 25/18 A3002 RMK A01 T02470178  RH  069%=      5-min Rain = 0
KKN1 201240Z 24004KT 25/18 A3002 RMK A01 T02500177  RH  067%=      5-min Rain = 0
KKN1 201245Z 23004KT 25/18 A3002 RMK A01 T02530177  RH  066%=      5-min Rain = 0
KKN1 201250Z 21003KT 25/18 A3002 RMK A01 T02540178  RH  066%=      5-min Rain = 0
KKN1 201255Z 21003KT 26/18 A3002 RMK A01 T02550179  RH  066%=      5-min Rain = 0
KKN1 201300Z 19003KT 26/18 A3002 RMK A01 T02580180  RH  065%=      5-min Rain = 0
KKN1 201305Z 18004KT 26/18 A3003 RMK A01 T02610180  RH  064%=      5-min Rain = 0
KKN1 201310Z 17004KT 26/18 A3003 RMK A01 T02630181  RH  064%=      5-min Rain = 0
KKN1 201315Z 18004KT 27/18 A3002 RMK A01 T02650182  RH  064%=      5-min Rain = 0
KKN1 201320Z 18005KT 27/18 A3003 RMK A01 T02690182  RH  062%=      5-min Rain = 0
KKN1 201325Z 18005KT 27/18 A3002 RMK A01 T02720182  RH  061%=      5-min Rain = 0
KKN1 201330Z 18006KT 28/18 A3003 RMK A01 T02750181  RH  060%=      5-min Rain = 0
KKN1 201335Z 19005KT 28/18 A3003 RMK A01 T02780181  RH  059%=      5-min Rain = 0
KKN1 201340Z 19005KT 28/18 A3003 RMK A01 T02810183  RH  058%=      5-min Rain = 0
KKN1 201345Z 19005KT 29/19 A3003 RMK A01 T02850185  RH  058%=      5-min Rain = 0
KKN1 201350Z 20006KT 29/18 A3003 RMK A01 T02900183  RH  055%=      5-min Rain = 0
KKN1 201355Z 20006KT 29/18 A3003 RMK A01 T02940182  RH  054%=      5-min Rain = 0
KKN1 201400Z 21007KT 30/18 A3003 RMK A01 T02980182  RH  053%=      5-min Rain = 0
KKN1 201405Z 21008KT 30/18 A3003 RMK A01 T03020181  RH  051%=      5-min Rain = 0
KKN1 201410Z 21008KT 31/18 A3003 RMK A01 T03060182  RH  050%=      5-min Rain = 0
KKN1 201415Z 21010KT 31/18 A3003 RMK A01 T03070181  RH  050%=      5-min Rain = 0
KKN1 201420Z 21009KT 31/18 A3003 RMK A01 T03100181  RH  049%=      5-min Rain = 0
KKN1 201425Z 21009KT 31/18 A3003 RMK A01 T03120183  RH  049%=      5-min Rain = 0
KKN1 201430Z 21009KT 32/18 A3003 RMK A01 T03150182  RH  048%=      5-min Rain = 0
KKN1 201435Z 21009KT 32/18 A3003 RMK A01 T03180183  RH  047%=      5-min Rain = 0
KKN1 201440Z 21008KT 32/18 A3003 RMK A01 T03190184  RH  047%=      5-min Rain = 0
KKN1 201445Z 21009KT 32/18 A3003 RMK A01 T03210184  RH  047%=      5-min Rain = 0
KKN1 201450Z 21010KT 32/18 A3003 RMK A01 T03210184  RH  046%=      5-min Rain = 0
KKN1 201455Z 21009KT 32/19 A3003 RMK A01 T03240185  RH  046%=      5-min Rain = 0
KKN1 201500Z 22010KT 33/19 A3003 RMK A01 T03260185  RH  046%=      5-min Rain = 0
KKN1 201505Z 20010KT 33/19 A3003 RMK A01 T03280186  RH  045%=      5-min Rain = 0
KKN1 201510Z 20011KT 33/19 A3003 RMK A01 T03280185  RH  045%=      5-min Rain = 0
KKN1 201515Z 20010KT 33/19 A3003 RMK A01 T03300186  RH  045%=      5-min Rain = 0
KKN1 201520Z 21011KT 33/19 A3003 RMK A01 T03310185  RH  044%=      5-min Rain = 0
KKN1 201525Z 21010KT 33/19 A3004 RMK A01 T03330186  RH  044%=      5-min Rain = 0
KKN1 201530Z 21010KT 34/19 A3004 RMK A01 T03350186  RH  044%=      5-min Rain = 0
KKN1 201535Z 21008G13KT 34/19 A3004 RMK A01 T03370186  RH  043%=      5-min Rain = 0
KKN1 201540Z 20009KT 34/19 A3004 RMK A01 T03390187  RH  043%=      5-min Rain = 0
KKN1 201545Z 21009KT 34/19 A3004 RMK A01 T03410186  RH  042%=      5-min Rain = 0
KKN1 201550Z 19009KT 35/19 A3004 RMK A01 T03450187  RH  042%=      5-min Rain = 0
KKN1 201555Z 21010KT 35/19 A3004 RMK A01 T03460187  RH  041%=      5-min Rain = 0
KKN1 201600Z 20010KT 35/19 A3004 RMK A01 T03480185  RH  040%=      5-min Rain = 0
KKN1 201605Z 20011KT 35/18 A3004 RMK A01 T03510183  RH  039%=      5-min Rain = 0
KKN1 201610Z 21010KT 35/19 A3004 RMK A01 T03500185  RH  040%=      5-min Rain = 0
KKN1 201615Z 18010KT 35/19 A3004 RMK A01 T03520187  RH  040%=      5-min Rain = 0
KKN1 201620Z 20012KT 35/18 A3004 RMK A01 T03500184  RH  040%=      5-min Rain = 0
KKN1 201625Z 20009G14KT 35/19 A3004 RMK A01 T03520186  RH  040%=      5-min Rain = 0
KKN1 201630Z 19009KT 36/19 A3004 RMK A01 T03550186  RH  039%=      5-min Rain = 0
KKN1 201635Z 18010KT 36/19 A3004 RMK A01 T03570186  RH  039%=      5-min Rain = 0
KKN1 201640Z 17009G14KT 36/19 A3004 RMK A01 T03570187  RH  039%=      5-min Rain = 0
KKN1 201645Z 18012KT 36/19 A3004 RMK A01 T03620186  RH  038%=      5-min Rain = 0
KKN1 201650Z 19010KT 36/19 A3004 RMK A01 T03580185  RH  038%=      5-min Rain = 0
KKN1 201655Z 18010KT 36/19 A3004 RMK A01 T03590187  RH  038%=      5-min Rain = 0
KKN1 201700Z 18010KT 36/19 A3004 RMK A01 T03630187  RH  038%=      5-min Rain = 0
KKN1 201705Z 19011KT 36/19 A3004 RMK A01 T03630185  RH  037%=      5-min Rain = 0
KKN1 201710Z 18010KT 36/18 A3004 RMK A01 T03600183  RH  037%=      5-min Rain = 0
KKN1 201715Z 17010KT 36/18 A3004 RMK A01 T03640184  RH  037%=      5-min Rain = 0
KKN1 201720Z 18010G15KT 36/18 A3004 RMK A01 T03640184  RH  037%=      5-min Rain = 0
KKN1 201725Z 18009G17KT 37/18 A3004 RMK A01 T03660183  RH  036%=      5-min Rain = 0
KKN1 201730Z 20008G14KT 37/18 A3004 RMK A01 T03660182  RH  036%=      5-min Rain = 0
KKN1 201735Z 17009KT 37/18 A3004 RMK A01 T03690177  RH  034%=      5-min Rain = 0
KKN1 201740Z 15009KT 37/18 A3004 RMK A01 T03660177  RH  035%=      5-min Rain = 0
KKN1 201745Z 21007KT 37/18 A3003 RMK A01 T03690180  RH  035%=      5-min Rain = 0
KKN1 201750Z 18008G13KT 37/18 A3003 RMK A01 T03690180  RH  035%=      5-min Rain = 0
KKN1 201755Z 18009G16KT 37/18 A3003 RMK A01 T03700178  RH  034%=      5-min Rain = 0
KKN1 201800Z 16011G17KT 38/17 A3003 RMK A01 T03760174  RH  032%=      5-min Rain = 0
KKN1 201805Z 17005G10KT 37/17 A3003 RMK A01 T03720173  RH  033%=      5-min Rain = 0
KKN1 201810Z 17010G17KT 37/17 A3003 RMK A01 T03730173  RH  033%=      5-min Rain = 0
KKN1 201815Z 18009G14KT 37/17 A3003 RMK A01 T03730171  RH  032%=      5-min Rain = 0
KKN1 201820Z 18009G14KT 37/17 A3003 RMK A01 T03740169  RH  032%=      5-min Rain = 0
KKN1 201825Z 16009G14KT 38/17 A3003 RMK A01 T03770172  RH  032%=      5-min Rain = 0
KKN1 201830Z 18006KT 37/17 A3003 RMK A01 T03700173  RH  033%=      5-min Rain = 0
KKN1 201835Z 17008KT 38/17 A3003 RMK A01 T03780174  RH  032%=      5-min Rain = 0
KKN1 201840Z 14007G12KT 38/17 A3002 RMK A01 T03760170  RH  031%=      5-min Rain = 0
KKN1 201845Z 15011G19KT 38/16 A3002 RMK A01 T03790163  RH  029%=      5-min Rain = 0
KKN1 201850Z 15008G13KT 38/16 A3002 RMK A01 T03810161  RH  029%=      5-min Rain = 0
KKN1 201855Z 13008G13KT 38/17 A3002 RMK A01 T03820170  RH  030%=      5-min Rain = 0
KKN1 201900Z 14009KT 38/17 A3002 RMK A01 T03810171  RH  031%=      5-min Rain = 0
KKN1 201905Z 18008KT 38/18 A3002 RMK A01 T03800175  RH  032%=      5-min Rain = 0
KKN1 201910Z 12011G17KT 38/17 A3002 RMK A01 T03820168  RH  030%=      5-min Rain = 0
KKN1 201915Z 13009G14KT 38/17 A3001 RMK A01 T03800171  RH  031%=      5-min Rain = 0
KKN1 201920Z 14012KT 39/17 A3001 RMK A01 T03860168  RH  029%=      5-min Rain = 0
KKN1 201925Z 13012G17KT 38/17 A3001 RMK A01 T03840167  RH  030%=      5-min Rain = 0
KKN1 201930Z 15006G11KT 38/17 A3001 RMK A01 T03820167  RH  030%=      5-min Rain = 0
KKN1 201935Z 16010G15KT 39/17 A3001 RMK A01 T03870166  RH  029%=      5-min Rain = 0
KKN1 201940Z 14008G15KT 38/17 A3001 RMK A01 T03840165  RH  029%=      5-min Rain = 0
KKN1 201945Z 15008G14KT 39/17 A30 RMK A01 T03860168  RH  029%=      5-min Rain = 0
KKN1 201950Z 14008G13KT 39/17 A30 RMK A01 T03860172  RH  030%=      5-min Rain = 0
KKN1 201955Z 15006KT 39/17 A30 RMK A01 T03880171  RH  030%=      5-min Rain = 0
KKN1 202000Z 13011G17KT 39/17 A30 RMK A01 T03900167  RH  029%=      5-min Rain = 0
KKN1 202005Z 14012KT 39/16 A30 RMK A01 T03920160  RH  027%=      5-min Rain = 0
KKN1 202010Z 15011KT 39/16 A30 RMK A01 T03900155  RH  026%=      5-min Rain = 0
KKN1 202015Z 15007G14KT 39/16 A2999 RMK A01 T03880161  RH  028%=      5-min Rain = 0
KKN1 202020Z 14011G16KT 39/16 A2999 RMK A01 T03930157  RH  026%=      5-min Rain = 0
KKN1 202025Z 15009G16KT 39/16 A2999 RMK A01 T03910160  RH  027%=      5-min Rain = 0
KKN1 202030Z 17011KT 39/16 A2998 RMK A01 T03930163  RH  027%=      5-min Rain = 0
KKN1 202035Z 14009G16KT 39/16 A2998 RMK A01 T03900164  RH  028%=      5-min Rain = 0
KKN1 202040Z 14008G17KT 39/16 A2998 RMK A01 T03890163  RH  028%=      5-min Rain = 0
KKN1 202045Z 15010KT 39/17 A2998 RMK A01 T03930165  RH  028%=      5-min Rain = 0
KKN1 202050Z 15010G16KT 39/16 A2998 RMK A01 T03940161  RH  027%=      5-min Rain = 0
KKN1 202055Z 15008G14KT 39/16 A2998 RMK A01 T03910160  RH  027%=      5-min Rain = 0
KKN1 202100Z 18007G12KT 39/16 A2997 RMK A01 T03940156  RH  026%=      5-min Rain = 0
KKN1 202105Z 14011G16KT 39/15 A2997 RMK A01 T03940147  RH  025%=      5-min Rain = 0
KKN1 202110Z 13011KT 40/15 A2997 RMK A01 T03990146  RH  024%=      5-min Rain = 0
KKN1 202115Z 14011G16KT 40/15 A2997 RMK A01 T03960148  RH  024%=      5-min Rain = 0
KKN1 202120Z 13010G15KT 40/16 A2997 RMK A01 T03960160  RH  026%=      5-min Rain = 0
KKN1 202125Z 17010G15KT 39/16 A2996 RMK A01 T03930156  RH  026%=      5-min Rain = 0
KKN1 202130Z 18007G17KT 39/16 A2996 RMK A01 T03910155  RH  026%=      5-min Rain = 0
KKN1 202135Z 16012KT 40/16 A2996 RMK A01 T03970158  RH  026%=      5-min Rain = 0
KKN1 202140Z 14007KT 39/16 A2996 RMK A01 T03900157  RH  027%=      5-min Rain = 0
KKN1 202145Z 17013G18KT 40/16 A2996 RMK A01 T03960157  RH  026%=      5-min Rain = 0
KKN1 202150Z 19008G13KT 39/16 A2996 RMK A01 T03910157  RH  027%=      5-min Rain = 0
KKN1 202155Z 13009G15KT 39/16 A2996 RMK A01 T03920161  RH  027%=      5-min Rain = 0
KKN1 202200Z 15011G17KT 39/16 A2996 RMK A01 T03910159  RH  027%=      5-min Rain = 0
KKN1 202205Z 15010G15KT 39/16 A2995 RMK A01 T03940158  RH  026%=      5-min Rain = 0
KKN1 202210Z 17009KT 39/16 A2995 RMK A01 T03900160  RH  027%=      5-min Rain = 0
KKN1 202215Z 17009G15KT 39/16 A2995 RMK A01 T03940160  RH  027%=      5-min Rain = 0
KKN1 202220Z 17012G18KT 40/16 A2995 RMK A01 T03950162  RH  027%=      5-min Rain = 0
KKN1 202225Z 18010G16KT 39/16 A2995 RMK A01 T03910161  RH  027%=      5-min Rain = 0
KKN1 202230Z 17013KT 40/16 A2995 RMK A01 T03950161  RH  027%=      5-min Rain = 0
KKN1 202235Z 16011G18KT 39/16 A2995 RMK A01 T03940160  RH  027%=      5-min Rain = 0
KKN1 202240Z 15011KT 40/16 A2995 RMK A01 T03990159  RH  026%=      5-min Rain = 0
KKN1 202245Z 15008KT 39/16 A2995 RMK A01 T03940157  RH  026%=      5-min Rain = 0
KKN1 202250Z 16009KT 40/16 A2995 RMK A01 T03960160  RH  026%=      5-min Rain = 0
KKN1 202255Z 17010G15KT 40/16 A2994 RMK A01 T03960161  RH  026%=      5-min Rain = 0
KKN1 202300Z 17011KT 39/16 A2994 RMK A01 T03910160  RH  027%=      5-min Rain = 0
KKN1 202305Z 17012KT 39/16 A2994 RMK A01 T03910160  RH  027%=      5-min Rain = 0
KKN1 202310Z 16009G15KT 39/16 A2994 RMK A01 T03910159  RH  027%=      5-min Rain = 0
KKN1 202315Z 16011KT 39/16 A2994 RMK A01 T03920160  RH  027%=      5-min Rain = 0
KKN1 202320Z 16009KT 39/16 A2994 RMK A01 T03910159  RH  027%=      5-min Rain = 0
KKN1 202325Z 17010KT 39/16 A2994 RMK A01 T03900160  RH  027%=      5-min Rain = 0
KKN1 202330Z 16011KT 39/16 A2994 RMK A01 T03900158  RH  027%=      5-min Rain = 0
KKN1 202335Z 16011KT 39/15 A2994 RMK A01 T03900154  RH  026%=      5-min Rain = 0
KKN1 202340Z 15010KT 39/16 A2994 RMK A01 T03910156  RH  026%=      5-min Rain = 0
KKN1 202345Z 14011KT 39/16 A2994 RMK A01 T03890155  RH  027%=      5-min Rain = 0
KKN1 202350Z 14012KT 39/15 A2994 RMK A01 T03880154  RH  026%=      5-min Rain = 0
KKN1 202355Z 15010KT 39/15 A2994 RMK A01 T03870152  RH  026%=      5-min Rain = 0
KKN1 210000Z 15010G15KT 39/15 A2994 RMK A01 T03870152  RH  026%=      5-min Rain = 0
KKN1 210005Z 14013KT 39/15 A2994 RMK A01 T03850151  RH  026%=      5-min Rain = 0
KKN1 210010Z 14010KT 38/15 A2994 RMK A01 T03840152  RH  027%=      5-min Rain = 0
KKN1 210015Z 15010KT 38/15 A2994 RMK A01 T03830149  RH  026%=      5-min Rain = 0
KKN1 210020Z 15009KT 38/15 A2994 RMK A01 T03820151  RH  027%=      5-min Rain = 0
KKN1 210025Z 14010KT 38/15 A2994 RMK A01 T03810148  RH  026%=      5-min Rain = 0
KKN1 210030Z 15010G15KT 38/15 A2994 RMK A01 T03800149  RH  027%=      5-min Rain = 0
KKN1 210035Z 14010KT 38/15 A2994 RMK A01 T03780149  RH  027%=      5-min Rain = 0
KKN1 210040Z 14010KT 38/15 A2994 RMK A01 T03760148  RH  027%=      5-min Rain = 0
KKN1 210045Z 15008KT 37/15 A2995 RMK A01 T03730150  RH  028%=      5-min Rain = 0
KKN1 210050Z 14009KT 37/15 A2995 RMK A01 T03710152  RH  029%=      5-min Rain = 0
KKN1 210055Z 15007KT 37/15 A2995 RMK A01 T03690152  RH  029%=      5-min Rain = 0
KKN1 210100Z 15008KT 37/15 A2995 RMK A01 T03650152  RH  030%=      5-min Rain = 0
KKN1 210105Z 15008KT 36/15 A2995 RMK A01 T03620152  RH  030%=      5-min Rain = 0
KKN1 210110Z 15007KT 36/15 A2995 RMK A01 T03590154  RH  031%=      5-min Rain = 0
KKN1 210115Z 14007KT 36/16 A2995 RMK A01 T03550155  RH  032%=      5-min Rain = 0
KKN1 210120Z 14006KT 35/16 A2996 RMK A01 T03520156  RH  033%=      5-min Rain = 0
KKN1 210125Z 14007KT 35/16 A2996 RMK A01 T03500156  RH  033%=      5-min Rain = 0
KKN1 210130Z 14007KT 35/16 A2996 RMK A01 T03480157  RH  033%=      5-min Rain = 0
KKN1 210135Z 14006KT 35/16 A2996 RMK A01 T03450158  RH  034%=      5-min Rain = 0
KKN1 210140Z 14006KT 34/16 A2996 RMK A01 T03410159  RH  035%=      5-min Rain = 0
KKN1 210145Z 14005KT 34/16 A2996 RMK A01 T03370160  RH  036%=      5-min Rain = 0
KKN1 210150Z 14006KT 34/16 A2996 RMK A01 T03350160  RH  037%=      5-min Rain = 0
KKN1 210155Z 14006KT 33/16 A2997 RMK A01 T03340161  RH  037%=      5-min Rain = 0
KKN1 210200Z 14006KT 33/16 A2997 RMK A01 T03330161  RH  037%=      5-min Rain = 0
KKN1 210205Z 14006KT 33/16 A2997 RMK A01 T03290161  RH  038%=      5-min Rain = 0
KKN1 210210Z 14006KT 33/16 A2997 RMK A01 T03260161  RH  039%=      5-min Rain = 0
KKN1 210215Z 14006KT 32/16 A2997 RMK A01 T03240161  RH  039%=      5-min Rain = 0
KKN1 210220Z 14007KT 32/16 A2997 RMK A01 T03220164  RH  041%=      5-min Rain = 0
KKN1 210225Z 14007KT 32/16 A2997 RMK A01 T03210164  RH  041%=      5-min Rain = 0
KKN1 210230Z 14007KT 32/17 A2997 RMK A01 T03200165  RH  041%=      5-min Rain = 0
KKN1 210235Z 14007KT 32/17 A2998 RMK A01 T03190165  RH  042%=      5-min Rain = 0
KKN1 210240Z 14008KT 32/17 A2998 RMK A01 T03180165  RH  042%=      5-min Rain = 0
KKN1 210245Z 14008KT 32/16 A2998 RMK A01 T03170164  RH  042%=      5-min Rain = 0
KKN1 210250Z 14007KT 32/16 A2998 RMK A01 T03170164  RH  042%=      5-min Rain = 0
KKN1 210255Z 14007KT 32/16 A2998 RMK A01 T03150163  RH  042%=      5-min Rain = 0
KKN1 210300Z 14007KT 32/16 A2998 RMK A01 T03150163  RH  042%=      5-min Rain = 0
KKN1 210305Z 14007KT 31/16 A2999 RMK A01 T03140163  RH  042%=      5-min Rain = 0
KKN1 210310Z 13007KT 31/16 A2999 RMK A01 T03140163  RH  042%=      5-min Rain = 0
KKN1 210315Z 13007KT 31/16 A2999 RMK A01 T03130163  RH  042%=      5-min Rain = 0
KKN1 210320Z 14007KT 31/16 A2999 RMK A01 T03130164  RH  043%=      5-min Rain = 0
KKN1 210325Z 14008KT 31/16 A2999 RMK A01 T03120164  RH  043%=      5-min Rain = 0
KKN1 210330Z 14008KT 31/16 A2999 RMK A01 T03120164  RH  043%=      5-min Rain = 0
KKN1 210335Z 14008KT 31/16 A2999 RMK A01 T03120164  RH  043%=      5-min Rain = 0
KKN1 210340Z 14007KT 31/16 A2999 RMK A01 T03110164  RH  043%=      5-min Rain = 0
KKN1 210345Z 14007KT 31/17 A30 RMK A01 T03100165  RH  044%=      5-min Rain = 0
KKN1 210350Z 14007KT 31/17 A30 RMK A01 T03090165  RH  044%=      5-min Rain = 0
KKN1 210355Z 14007KT 31/16 A30 RMK A01 T03080164  RH  044%=      5-min Rain = 0
KKN1 210400Z 14007KT 31/16 A30 RMK A01 T03070164  RH  044%=      5-min Rain = 0
KKN1 210405Z 14007KT 31/16 A30 RMK A01 T03060164  RH  045%=      5-min Rain = 0
KKN1 210410Z 14008KT 31/17 A30 RMK A01 T03050165  RH  045%=      5-min Rain = 0
KKN1 210415Z 14009KT 30/17 A30 RMK A01 T03040165  RH  045%=      5-min Rain = 0
KKN1 210420Z 14009KT 30/17 A30 RMK A01 T03030165  RH  046%=      5-min Rain = 0
KKN1 210425Z 14009KT 30/16 A30 RMK A01 T03030164  RH  045%=      5-min Rain = 0
KKN1 210430Z 14008KT 30/16 A30 RMK A01 T03030164  RH  045%=      5-min Rain = 0
KKN1 210435Z 14008KT 30/16 A30 RMK A01 T03020163  RH  045%=      5-min Rain = 0
KKN1 210440Z 14009KT 30/16 A30 RMK A01 T03010163  RH  046%=      5-min Rain = 0
KKN1 210445Z 14009KT 30/16 A30 RMK A01 T03000163  RH  046%=      5-min Rain = 0
KKN1 210450Z 14009KT 30/16 A30 RMK A01 T03000163  RH  046%=      5-min Rain = 0
KKN1 210455Z 14009KT 30/16 A30 RMK A01 T02980163  RH  046%=      5-min Rain = 0

Page generated in 0.009 seconds.